createdAt,value
2023-05-20T00:01:00.680Z,101503.81
2023-05-20T00:03:30.505Z,101514.78
2023-05-20T00:05:58.956Z,101512.97
2023-05-20T00:08:27.419Z,101513.66
2023-05-20T00:10:55.717Z,101518.97
2023-05-20T00:13:25.164Z,101517.13
2023-05-20T00:15:54.469Z,101510.94
2023-05-20T00:18:22.693Z,101521.72
2023-05-20T00:20:51.327Z,101523.09
2023-05-20T00:23:19.608Z,101517.47
2023-05-20T00:25:48.074Z,101522.38
2023-05-20T00:28:16.522Z,101510.16
2023-05-20T00:30:44.782Z,101512.16
2023-05-20T00:33:13.592Z,101514.16
2023-05-20T00:35:41.935Z,101520.31
2023-05-20T00:38:10.241Z,101512.41
2023-05-20T00:40:38.509Z,101515.00
2023-05-20T00:43:06.820Z,101517.03
2023-05-20T00:45:35.408Z,101515.78
2023-05-20T00:48:04.942Z,101507.50
2023-05-20T00:50:33.631Z,101518.91
2023-05-20T00:53:01.981Z,101520.13
2023-05-20T00:55:30.284Z,101529.59
2023-05-20T00:57:58.699Z,101526.75
2023-05-20T01:00:26.924Z,101526.13
2023-05-20T01:02:57.860Z,101523.53
2023-05-20T01:05:26.197Z,101528.22
2023-05-20T01:07:54.706Z,101527.00
2023-05-20T01:10:28.539Z,101528.53
2023-05-20T01:13:00.350Z,101525.31
2023-05-20T01:15:29.585Z,101520.28
2023-05-20T01:18:02.635Z,101521.56
2023-05-20T01:20:33.282Z,101514.97
2023-05-20T01:23:01.756Z,101519.72
2023-05-20T01:25:30.071Z,101527.88
2023-05-20T01:27:58.966Z,101534.00
2023-05-20T01:30:31.860Z,101534.41
2023-05-20T01:33:06.144Z,101533.53
2023-05-20T01:35:34.861Z,101528.00
2023-05-20T01:38:06.324Z,101528.00
2023-05-20T01:40:35.662Z,101531.00
2023-05-20T01:43:05.393Z,101525.25
2023-05-20T01:45:34.510Z,101527.84
2023-05-20T01:48:03.925Z,101537.16
2023-05-20T01:50:32.202Z,101536.59
2023-05-20T01:53:00.528Z,101542.22
2023-05-20T01:55:28.811Z,101540.16
2023-05-20T01:57:57.084Z,101548.50
2023-05-20T02:00:25.486Z,101542.50
2023-05-20T02:02:53.791Z,101547.22
2023-05-20T02:05:22.288Z,101546.91
2023-05-20T02:07:50.878Z,101540.81
2023-05-20T02:10:19.146Z,101545.31
2023-05-20T02:12:48.727Z,101549.31
2023-05-20T02:15:17.107Z,101546.84
2023-05-20T02:17:45.438Z,101544.47
2023-05-20T02:20:14.661Z,101545.66
2023-05-20T02:22:42.943Z,101553.06
2023-05-20T02:25:11.402Z,101550.69
2023-05-20T02:27:40.754Z,101556.19
2023-05-20T02:30:09.929Z,101552.00
2023-05-20T02:32:39.073Z,101556.78
2023-05-20T02:35:07.665Z,101554.56
2023-05-20T02:37:35.977Z,101557.72
2023-05-20T02:40:04.258Z,101562.38
2023-05-20T02:42:32.556Z,101556.97
2023-05-20T02:45:00.807Z,101556.44
2023-05-20T02:47:29.226Z,101560.28
2023-05-20T02:49:57.577Z,101552.38
2023-05-20T02:52:25.830Z,101558.97
2023-05-20T02:54:54.130Z,101570.13
2023-05-20T02:57:22.524Z,101565.25
2023-05-20T02:59:51.171Z,101577.34
2023-05-20T03:02:19.579Z,101574.03
2023-05-20T03:04:48.072Z,101575.09
2023-05-20T03:07:20.301Z,101577.31
2023-05-20T03:09:48.691Z,101589.97
2023-05-20T03:12:16.992Z,101592.00
2023-05-20T03:14:45.248Z,101601.25
2023-05-20T03:17:13.527Z,101594.16
2023-05-20T03:19:42.085Z,101596.88
2023-05-20T03:22:10.286Z,101596.88
2023-05-20T03:24:38.569Z,101602.47
2023-05-20T03:27:07.715Z,101602.09
2023-05-20T03:29:36.003Z,101608.81
2023-05-20T03:32:04.277Z,101609.97
2023-05-20T03:34:32.752Z,101608.31
2023-05-20T03:37:01.200Z,101606.78
2023-05-20T03:39:29.515Z,101612.28
2023-05-20T03:41:57.751Z,101614.16
2023-05-20T03:44:26.013Z,101612.59
2023-05-20T03:46:54.308Z,101617.13
2023-05-20T03:49:22.564Z,101622.41
2023-05-20T03:51:51.137Z,101627.78
2023-05-20T03:54:19.361Z,101625.13
2023-05-20T03:56:47.879Z,101630.63
2023-05-20T03:59:16.350Z,101630.72
2023-05-20T04:01:44.669Z,101635.44
2023-05-20T04:04:13.083Z,101635.47
2023-05-20T04:06:41.459Z,101639.25
2023-05-20T04:09:09.869Z,101641.97
2023-05-20T04:11:38.136Z,101646.41
2023-05-20T04:14:06.439Z,101653.66
2023-05-20T04:16:34.660Z,101654.56
2023-05-20T04:19:03.547Z,101651.13
2023-05-20T04:21:32.498Z,101653.00
2023-05-20T04:24:00.795Z,101667.41
2023-05-20T04:26:29.847Z,101670.22
2023-05-20T04:28:59.917Z,101668.59
2023-05-20T04:31:28.218Z,101675.66
2023-05-20T04:33:56.783Z,101685.72
2023-05-20T04:36:29.507Z,101688.53
2023-05-20T04:38:58.291Z,101681.63
2023-05-20T04:41:26.536Z,101683.63
2023-05-20T04:43:54.758Z,101694.41
2023-05-20T04:46:23.038Z,101696.31
2023-05-20T04:48:51.686Z,101698.28
2023-05-20T04:51:19.941Z,101704.53
2023-05-20T04:53:48.193Z,101708.06
2023-05-20T04:56:16.640Z,101698.47
2023-05-20T04:58:44.898Z,101709.19
2023-05-20T05:01:13.142Z,101704.00
2023-05-20T05:03:41.438Z,101710.28
2023-05-20T05:06:09.697Z,101704.94
2023-05-20T05:08:38.165Z,101703.19
2023-05-20T05:11:09.766Z,101696.19
2023-05-20T05:13:37.998Z,101698.94
2023-05-20T05:16:06.633Z,101699.06
2023-05-20T05:18:34.870Z,101708.88
2023-05-20T05:21:05.095Z,101701.81
2023-05-20T05:23:34.425Z,101699.13
2023-05-20T05:26:02.702Z,101699.28
2023-05-20T05:28:31.286Z,101694.00
2023-05-20T05:30:59.555Z,101697.69
2023-05-20T05:33:27.837Z,101690.56
2023-05-20T05:35:57.649Z,101694.31
2023-05-20T05:38:26.635Z,101688.19
2023-05-20T05:40:54.986Z,101690.84
2023-05-20T05:43:23.269Z,101698.75
2023-05-20T05:45:51.875Z,101696.19
2023-05-20T05:48:20.148Z,101705.16
2023-05-20T05:50:48.507Z,101700.84
2023-05-20T05:53:17.027Z,101699.28
2023-05-20T05:55:47.132Z,101691.34
2023-05-20T05:58:15.372Z,101683.41
2023-05-20T06:00:43.643Z,101685.13
2023-05-20T06:03:12.037Z,101684.34
2023-05-20T06:05:40.332Z,101683.69
2023-05-20T06:08:08.980Z,101685.56
2023-05-20T06:10:37.257Z,101680.38
2023-05-20T06:13:05.588Z,101680.38
2023-05-20T06:15:34.008Z,101676.81
2023-05-20T06:18:02.448Z,101682.09
2023-05-20T06:20:30.750Z,101674.94
2023-05-20T06:22:59.085Z,101678.47
2023-05-20T06:25:27.401Z,101682.75
2023-05-20T06:27:55.634Z,101681.91
2023-05-20T06:30:23.907Z,101688.28
2023-05-20T06:32:52.513Z,101690.25
2023-05-20T06:35:21.193Z,101684.22
2023-05-20T06:37:49.527Z,101673.59
2023-05-20T06:40:18.181Z,101678.94
2023-05-20T06:42:46.627Z,101681.69
2023-05-20T06:45:14.897Z,101674.78
2023-05-20T06:47:43.231Z,101674.03
2023-05-20T06:50:12.189Z,101674.06
2023-05-20T06:52:40.448Z,101686.47
2023-05-20T06:55:09.063Z,101684.78
2023-05-20T06:57:37.544Z,101690.19
2023-05-20T07:00:06.942Z,101692.91
2023-05-20T07:02:35.373Z,101695.63
2023-05-20T07:05:03.613Z,101684.97
2023-05-20T07:07:31.877Z,101690.38
2023-05-20T07:10:00.217Z,101692.25
2023-05-20T07:12:28.486Z,101689.50
2023-05-20T07:14:56.666Z,101688.63
2023-05-20T07:17:25.702Z,101680.66
2023-05-20T07:19:53.978Z,101687.75
2023-05-20T07:22:22.122Z,101684.22
2023-05-20T07:24:50.355Z,101697.81
2023-05-20T07:27:18.551Z,101692.59
2023-05-20T07:29:46.927Z,101690.03
2023-05-20T07:32:15.146Z,101690.06
2023-05-20T07:34:43.413Z,101687.44
2023-05-20T07:37:13.552Z,101684.84
2023-05-20T07:39:41.828Z,101683.03
2023-05-20T07:42:10.063Z,101687.44
2023-05-20T07:44:38.245Z,101695.44
2023-05-20T07:47:06.892Z,101690.16
2023-05-20T07:49:35.099Z,101693.63
2023-05-20T07:52:03.394Z,101692.69
2023-05-20T07:54:31.759Z,101693.56
2023-05-20T07:57:01.157Z,101689.13
2023-05-20T07:59:29.342Z,101688.38
2023-05-20T08:01:58.045Z,101687.50
2023-05-20T08:04:27.926Z,101685.72
2023-05-20T08:06:56.691Z,101691.09
2023-05-20T08:09:24.967Z,101692.91
2023-05-20T08:11:53.167Z,101694.69
2023-05-20T08:14:21.383Z,101687.63
2023-05-20T08:16:51.090Z,101689.41
2023-05-20T08:19:21.465Z,101676.97
2023-05-20T08:21:50.217Z,101674.31
2023-05-20T08:24:18.526Z,101671.66
2023-05-20T08:26:46.752Z,101673.47
2023-05-20T08:29:14.986Z,101677.84
2023-05-20T08:31:43.208Z,101678.72
2023-05-20T08:34:11.406Z,101684.91
2023-05-20T08:36:40.768Z,101682.13
2023-05-20T08:39:08.926Z,101678.50
2023-05-20T08:41:38.168Z,101679.28
2023-05-20T08:44:07.202Z,101671.25
2023-05-20T08:46:36.996Z,101672.97
2023-05-20T08:49:05.244Z,101677.34
2023-05-20T08:51:34.759Z,101679.91
2023-05-20T08:54:03.834Z,101676.31
2023-05-20T08:56:34.708Z,101686.88
2023-05-20T08:59:02.966Z,101684.13
2023-05-20T09:01:31.198Z,101686.84
2023-05-20T09:03:59.376Z,101674.44
2023-05-20T09:06:27.610Z,101677.09
2023-05-20T09:08:55.858Z,101681.56
2023-05-20T09:11:24.637Z,101682.50
2023-05-20T09:13:52.781Z,101676.31
2023-05-20T09:16:21.166Z,101674.56
2023-05-20T09:18:49.680Z,101661.19
2023-05-20T09:21:17.866Z,101671.03
2023-05-20T09:23:50.160Z,101677.31
2023-05-20T09:26:19.858Z,101679.97
2023-05-20T09:28:48.107Z,101678.16
2023-05-20T09:31:16.547Z,101680.66
2023-05-20T09:33:45.377Z,101685.13
2023-05-20T09:36:16.604Z,101676.31
2023-05-20T09:38:48.232Z,101679.03
2023-05-20T09:41:16.510Z,101672.72
2023-05-20T09:43:45.777Z,101665.56
2023-05-20T09:46:15.055Z,101664.97
2023-05-20T09:48:44.193Z,101668.53
2023-05-20T09:51:14.167Z,101662.25
2023-05-20T09:53:43.934Z,101665.78
2023-05-20T09:56:12.478Z,101671.06
2023-05-20T09:58:43.488Z,101673.72
2023-05-20T10:01:11.979Z,101670.16
2023-05-20T10:03:42.649Z,101672.72
2023-05-20T10:06:35.040Z,101672.63
2023-05-20T10:09:32.222Z,101676.22
2023-05-20T10:12:42.166Z,101679.78
2023-05-20T10:15:51.694Z,101673.69
2023-05-20T10:18:28.846Z,101666.59
2023-05-20T10:20:57.174Z,101673.69
2023-05-20T10:23:28.943Z,101677.34
2023-05-20T10:25:58.580Z,101677.34
2023-05-20T10:28:37.905Z,101672.97
2023-05-20T10:31:21.948Z,101664.06
2023-05-20T10:33:53.528Z,101672.91
2023-05-20T10:36:29.093Z,101680.72
2023-05-20T10:38:59.263Z,101671.84
2023-05-20T10:41:29.021Z,101677.19
2023-05-20T10:44:06.799Z,101677.09
2023-05-20T10:46:53.970Z,101680.66
2023-05-20T10:49:27.102Z,101682.38
2023-05-20T10:51:56.470Z,101675.19
2023-05-20T10:54:24.847Z,101671.72
2023-05-20T10:56:54.539Z,101672.53
2023-05-20T10:59:23.194Z,101681.50
2023-05-20T11:01:52.785Z,101679.72
2023-05-20T11:04:21.606Z,101685.84
2023-05-20T11:06:56.833Z,101680.63
2023-05-20T11:09:25.111Z,101681.50
2023-05-20T11:11:56.670Z,101679.66
2023-05-20T11:14:24.944Z,101679.63
2023-05-20T11:16:55.093Z,101681.28
2023-05-20T11:19:23.447Z,101684.69
2023-05-20T11:21:52.390Z,101689.91
2023-05-20T11:24:30.541Z,101684.63
2023-05-20T11:26:58.960Z,101687.44
2023-05-20T11:29:29.919Z,101691.03
2023-05-20T11:31:58.230Z,101686.50
2023-05-20T11:34:27.787Z,101685.59
2023-05-20T11:37:00.303Z,101690.03
2023-05-20T11:39:31.795Z,101686.31
2023-05-20T11:42:00.105Z,101683.56
2023-05-20T11:44:28.441Z,101687.97
2023-05-20T11:47:02.533Z,101688.03
2023-05-20T11:49:31.658Z,101690.84
2023-05-20T11:51:59.884Z,101687.31
2023-05-20T11:54:28.312Z,101702.31
2023-05-20T11:56:57.431Z,101708.53
2023-05-20T11:59:26.023Z,101709.38
2023-05-20T12:01:54.349Z,101711.94
2023-05-20T12:04:22.825Z,101706.63
2023-05-20T12:06:51.514Z,101699.44
2023-05-20T12:09:19.759Z,101707.44
2023-05-20T12:11:48.051Z,101698.56
2023-05-20T12:14:16.281Z,101701.19
2023-05-20T12:16:44.541Z,101695.91
2023-05-20T12:19:12.927Z,101695.84
2023-05-20T12:21:41.158Z,101693.19
2023-05-20T12:24:09.436Z,101695.97
2023-05-20T12:26:37.742Z,101694.28
2023-05-20T12:29:06.002Z,101693.44
2023-05-20T12:31:35.116Z,101690.03
2023-05-20T12:34:03.777Z,101691.84
2023-05-20T12:36:32.448Z,101691.94
2023-05-20T12:39:00.680Z,101684.03
2023-05-20T12:41:28.917Z,101684.81
2023-05-20T12:43:57.132Z,101689.13
2023-05-20T12:46:25.684Z,101692.69
2023-05-20T12:48:54.066Z,101703.28
2023-05-20T12:51:22.303Z,101705.13
2023-05-20T12:53:50.865Z,101711.38
2023-05-20T12:56:20.193Z,101711.41
2023-05-20T12:58:48.500Z,101717.75
2023-05-20T13:01:16.795Z,101712.34
2023-05-20T13:03:45.230Z,101722.09
2023-05-20T13:06:13.617Z,101720.22
2023-05-20T13:08:41.912Z,101730.91
2023-05-20T13:11:10.157Z,101732.56
2023-05-20T13:13:38.393Z,101728.97
2023-05-20T13:16:07.269Z,101728.09
2023-05-20T13:18:35.501Z,101728.09
2023-05-20T13:21:03.779Z,101734.41
2023-05-20T13:23:32.073Z,101732.63
2023-05-20T13:26:00.578Z,101735.34
2023-05-20T13:28:28.990Z,101732.66
2023-05-20T13:30:57.277Z,101738.88
2023-05-20T13:33:25.537Z,101739.75
2023-05-20T13:35:53.825Z,101747.69
2023-05-20T13:38:22.129Z,101749.41
2023-05-20T13:40:50.549Z,101755.53
2023-05-20T13:43:18.777Z,101748.41
2023-05-20T13:45:47.007Z,101747.50
2023-05-20T13:48:15.271Z,101753.63
2023-05-20T13:50:43.533Z,101757.22
2023-05-20T13:53:14.518Z,101759.81
2023-05-20T13:55:42.871Z,101760.81
2023-05-20T13:58:11.140Z,101766.13
2023-05-20T14:00:39.805Z,101767.81
2023-05-20T14:03:09.891Z,101764.28
2023-05-20T14:05:38.197Z,101774.88
2023-05-20T14:08:06.652Z,101770.47
2023-05-20T14:10:35.453Z,101775.75
2023-05-20T14:13:03.892Z,101783.59
2023-05-20T14:15:32.272Z,101779.81
2023-05-20T14:18:00.524Z,101787.69
2023-05-20T14:20:28.777Z,101783.09
2023-05-20T14:22:57.076Z,101789.34
2023-05-20T14:25:25.244Z,101791.03
2023-05-20T14:27:53.413Z,101796.22
2023-05-20T14:30:21.822Z,101788.22
2023-05-20T14:32:50.165Z,101794.56
2023-05-20T14:35:19.111Z,101790.16
2023-05-20T14:37:47.559Z,101792.75
2023-05-20T14:40:16.257Z,101796.16
2023-05-20T14:42:44.452Z,101798.56
2023-05-20T14:45:12.759Z,101797.47
2023-05-20T14:47:41.058Z,101808.81
2023-05-20T14:50:09.634Z,101813.22
2023-05-20T14:52:37.955Z,101812.22
2023-05-20T14:55:06.741Z,101813.16
2023-05-20T14:57:35.117Z,101816.69
2023-05-20T15:00:03.302Z,101819.31
2023-05-20T15:02:31.609Z,101815.63
2023-05-20T15:04:59.940Z,101819.03
2023-05-20T15:07:28.532Z,101814.50
2023-05-20T15:09:56.718Z,101816.97
2023-05-20T15:12:24.966Z,101821.28
2023-05-20T15:14:53.166Z,101826.50
2023-05-20T15:17:21.420Z,101821.13
2023-05-20T15:19:49.915Z,101817.53
2023-05-20T15:22:18.160Z,101826.34
2023-05-20T15:24:46.322Z,101832.41
2023-05-20T15:27:16.332Z,101823.53
2023-05-20T15:29:44.798Z,101829.72
2023-05-20T15:32:12.998Z,101825.84
2023-05-20T15:34:41.254Z,101825.72
2023-05-20T15:37:09.452Z,101835.22
2023-05-20T15:39:40.575Z,101838.59
2023-05-20T15:42:08.855Z,101840.97
2023-05-20T15:44:37.327Z,101836.22
2023-05-20T15:47:06.640Z,101835.97
2023-05-20T15:49:34.895Z,101838.31
2023-05-20T15:52:04.275Z,101841.72
2023-05-20T15:54:33.789Z,101835.28
2023-05-20T15:57:03.308Z,101835.78
2023-05-20T15:59:31.674Z,101831.31
2023-05-20T16:01:59.931Z,101827.75
2023-05-20T16:04:28.210Z,101818.19
2023-05-20T16:06:56.730Z,101825.56
2023-05-20T16:09:24.957Z,101822.09
2023-05-20T16:11:53.148Z,101815.84
2023-05-20T16:14:21.390Z,101822.56
2023-05-20T16:16:50.104Z,101826.78
2023-05-20T16:19:18.405Z,101822.28
2023-05-20T16:21:46.867Z,101818.91
2023-05-20T16:24:15.570Z,101819.16
2023-05-20T16:26:43.897Z,101815.41
2023-05-20T16:29:13.039Z,101816.16
2023-05-20T16:31:42.533Z,101812.34
2023-05-20T16:34:10.796Z,101818.53
2023-05-20T16:36:39.006Z,101820.28
2023-05-20T16:39:07.817Z,101816.53
2023-05-20T16:41:35.976Z,101812.03
2023-05-20T16:44:04.172Z,101812.91
2023-05-20T16:46:32.496Z,101804.06
2023-05-20T16:49:00.696Z,101799.59
2023-05-20T16:51:28.917Z,101800.06
2023-05-20T16:53:57.418Z,101809.44
2023-05-20T16:56:25.677Z,101802.28
2023-05-20T16:58:54.930Z,101796.78
2023-05-20T17:01:23.816Z,101795.50
2023-05-20T17:03:52.345Z,101798.66
2023-05-20T17:06:20.539Z,101793.94
2023-05-20T17:08:48.751Z,101797.34
2023-05-20T17:11:17.311Z,101794.22
2023-05-20T17:13:45.512Z,101803.88
2023-05-20T17:16:13.986Z,101804.09
2023-05-20T17:18:42.262Z,101806.56
2023-05-20T17:21:10.530Z,101812.47
2023-05-20T17:23:38.696Z,101807.69
2023-05-20T17:26:07.247Z,101819.03
2023-05-20T17:28:35.451Z,101803.66
2023-05-20T17:31:03.675Z,101812.88
2023-05-20T17:33:32.381Z,101807.22
2023-05-20T17:36:00.755Z,101814.22
2023-05-20T17:38:28.999Z,101814.69
2023-05-20T17:40:57.346Z,101817.38
2023-05-20T17:43:26.451Z,101823.78
2023-05-20T17:45:54.769Z,101830.97
2023-05-20T17:48:22.989Z,101832.41
2023-05-20T17:50:51.592Z,101826.72
2023-05-20T17:53:22.310Z,101833.47
2023-05-20T17:55:50.579Z,101833.59
2023-05-20T17:58:18.804Z,101830.34
2023-05-20T18:00:46.960Z,101829.41
2023-05-20T18:03:15.200Z,101836.94
2023-05-20T18:05:43.518Z,101839.06
2023-05-20T18:08:12.603Z,101838.97
2023-05-20T18:10:41.154Z,101838.03
2023-05-20T18:13:09.396Z,101832.28
2023-05-20T18:15:37.821Z,101829.19
2023-05-20T18:18:06.289Z,101827.25
2023-05-20T18:20:34.717Z,101820.16
2023-05-20T18:23:03.119Z,101811.56
2023-05-20T18:25:31.489Z,101814.16
2023-05-20T18:27:59.711Z,101812.97
2023-05-20T18:30:28.047Z,101807.34
2023-05-20T18:32:57.868Z,101808.97
2023-05-20T18:35:26.076Z,101811.97
2023-05-20T18:37:54.360Z,101810.72
2023-05-20T18:40:22.892Z,101825.03
2023-05-20T18:42:51.535Z,101813.63
2023-05-20T18:45:19.737Z,101814.13
2023-05-20T18:47:48.063Z,101811.78
2023-05-20T18:50:16.338Z,101805.47
2023-05-20T18:52:44.644Z,101811.56
2023-05-20T18:55:12.892Z,101805.31
2023-05-20T18:57:41.205Z,101802.06
2023-05-20T19:00:13.478Z,101799.13
2023-05-20T19:02:42.530Z,101800.97
2023-05-20T19:05:12.198Z,101802.03
2023-05-20T19:07:40.621Z,101806.34
2023-05-20T19:10:09.757Z,101803.94
2023-05-20T19:12:38.047Z,101796.56
2023-05-20T19:15:06.811Z,101797.16
2023-05-20T19:17:35.131Z,101790.28
2023-05-20T19:20:03.581Z,101794.19
2023-05-20T19:22:31.820Z,101793.38
2023-05-20T19:25:00.054Z,101805.75
2023-05-20T19:27:28.417Z,101793.91
2023-05-20T19:29:56.898Z,101796.44
2023-05-20T19:32:25.155Z,101789.22
2023-05-20T19:34:53.487Z,101799.91
2023-05-20T19:37:23.161Z,101791.28
2023-05-20T19:39:51.946Z,101796.16
2023-05-20T19:42:20.272Z,101795.72
2023-05-20T19:44:48.623Z,101798.59
2023-05-20T19:47:17.217Z,101789.41
2023-05-20T19:49:45.458Z,101790.75
2023-05-20T19:52:13.707Z,101801.72
2023-05-20T19:54:43.481Z,101796.41
2023-05-20T19:57:12.174Z,101798.56
2023-05-20T19:59:40.897Z,101789.50
2023-05-20T20:02:09.271Z,101789.06
2023-05-20T20:04:38.756Z,101782.38
2023-05-20T20:07:08.429Z,101780.16
2023-05-20T20:09:37.330Z,101783.97
2023-05-20T20:12:07.734Z,101780.03
2023-05-20T20:14:35.977Z,101774.41
2023-05-20T20:17:04.242Z,101772.63
2023-05-20T20:19:32.636Z,101777.38
2023-05-20T20:22:00.949Z,101778.25
2023-05-20T20:24:29.200Z,101767.72
2023-05-20T20:26:57.655Z,101771.56
2023-05-20T20:29:26.091Z,101769.66
2023-05-20T20:31:55.184Z,101765.44
2023-05-20T20:34:23.583Z,101768.81
2023-05-20T20:36:54.009Z,101767.91
2023-05-20T20:39:23.650Z,101763.97
2023-05-20T20:41:53.004Z,101770.47
2023-05-20T20:44:24.263Z,101774.44
2023-05-20T20:46:53.600Z,101768.22
2023-05-20T20:49:23.499Z,101767.63
2023-05-20T20:51:54.008Z,101773.28
2023-05-20T20:54:22.250Z,101758.06
2023-05-20T20:56:51.151Z,101759.31
2023-05-20T20:59:19.493Z,101759.56
2023-05-20T21:01:47.760Z,101761.22
2023-05-20T21:04:18.154Z,101755.38
2023-05-20T21:06:50.072Z,101762.16
2023-05-20T21:09:18.988Z,101749.31
2023-05-20T21:11:50.204Z,101751.16
2023-05-20T21:14:18.428Z,101746.72
2023-05-20T21:16:46.783Z,101743.47
2023-05-20T21:19:15.210Z,101748.84
2023-05-20T21:21:43.513Z,101747.47
2023-05-20T21:24:11.803Z,101753.53
2023-05-20T21:26:40.052Z,101747.47
2023-05-20T21:29:10.773Z,101742.91
2023-05-20T21:31:39.677Z,101733.72
2023-05-20T21:34:08.009Z,101730.47
2023-05-20T21:36:37.097Z,101734.88
2023-05-20T21:39:05.520Z,101738.25
2023-05-20T21:41:34.062Z,101738.78
2023-05-20T21:44:02.265Z,101734.78
2023-05-20T21:46:30.551Z,101738.91
2023-05-20T21:48:58.910Z,101740.44
2023-05-20T21:51:27.170Z,101732.63
2023-05-20T21:53:55.459Z,101735.13
2023-05-20T21:56:24.078Z,101735.22
2023-05-20T21:58:52.500Z,101731.31
2023-05-20T22:01:20.797Z,101723.19
2023-05-20T22:03:51.203Z,101723.56
2023-05-20T22:06:22.311Z,101722.06
2023-05-20T22:08:51.805Z,101732.34
2023-05-20T22:11:20.774Z,101713.34
2023-05-20T22:13:49.012Z,101717.38
2023-05-20T22:16:17.642Z,101715.19
2023-05-20T22:18:48.538Z,101718.13
2023-05-20T22:21:16.833Z,101712.91
2023-05-20T22:23:45.076Z,101718.22
2023-05-20T22:26:13.367Z,101719.75
2023-05-20T22:28:41.627Z,101714.09
2023-05-20T22:31:10.054Z,101713.84
2023-05-20T22:33:38.333Z,101709.50
2023-05-20T22:36:07.132Z,101707.22
2023-05-20T22:38:36.726Z,101705.81
2023-05-20T22:41:05.485Z,101698.72
2023-05-20T22:43:33.692Z,101698.13
2023-05-20T22:46:02.011Z,101691.16
2023-05-20T22:48:30.631Z,101688.00
2023-05-20T22:50:59.208Z,101692.28
2023-05-20T22:53:27.859Z,101688.53
2023-05-20T22:55:56.664Z,101681.53
2023-05-20T22:58:24.918Z,101684.38
2023-05-20T23:00:53.583Z,101684.16
2023-05-20T23:03:21.928Z,101679.38
2023-05-20T23:05:50.294Z,101676.09
2023-05-20T23:08:20.052Z,101677.34
2023-05-20T23:10:48.386Z,101671.47
2023-05-20T23:13:16.829Z,101660.69
2023-05-20T23:15:49.424Z,101650.53
2023-05-20T23:18:18.171Z,101663.09
2023-05-20T23:20:46.460Z,101660.81
2023-05-20T23:23:14.760Z,101663.63
2023-05-20T23:25:45.040Z,101660.97
2023-05-20T23:28:14.061Z,101661.47
2023-05-20T23:30:42.276Z,101660.44
2023-05-20T23:33:10.622Z,101657.13
2023-05-20T23:35:39.411Z,101653.16
2023-05-20T23:38:08.499Z,101652.63
2023-05-20T23:40:37.019Z,101654.72
2023-05-20T23:43:05.279Z,101647.31
2023-05-20T23:45:33.729Z,101655.03
2023-05-20T23:48:05.194Z,101655.00
2023-05-20T23:50:33.562Z,101651.38
2023-05-20T23:53:01.783Z,101646.94
2023-05-20T23:55:30.017Z,101654.53
2023-05-20T23:57:58.300Z,101645.47
